Etusivu
METAR-TAF:

METAR-TAF

Lentoasemat :

Narsarsuaqin lentoasema

Narsarsuaq, Grönlanti

Leveyspiiri: 61-10N, Pituuspiiri: 045-25W, korkeus merenpinnasta: 34 m

Tämänhetkinen sää

Tämä raportti tehtiin 59 minuuttia sitten, kello 15.50 UTC
Tuuli 5 kn idästä/koillisesta
Lämpötila -7°C
Kosteus 38%
Ilmanpaine 992 hPa
Näkyvyys 10 km tai enemmän
Muutamia pilviä 20000 ft:n korkeudessa

METAR: BGBW 051550Z 07005KT 9999 FEW200 M07/M19 Q0992

Aika: 13:49 (16:49 UTC)

Sääennuste

Tämä raportti tehtiin 2 tuntia ja 37 minuuttia sitten, kello 14.12 UTC
Ennuste voimassa 05. päivästä klo 15 UTC - 05. päivään klo 20 UTC
Tuuli 6 kn eri suunnista
Näkyvyys 10 km tai enemmän
Hajanaisia pilviä 15000 ft:n korkeudessa

TAF: BGBW 051412Z 0515/0520 VRB06KT 9999 SCT150

Säähavainnot ja -ennusteet yli 4000 lentoasemalta (METAR- ja TAF-raportit).

Käytössä olevat sääasemat on merkitty karttaan keltaisilla ja punaisilla pisteillä.

Aseta hiiri pisteen päälle nähdäksesi sääaseman nimen.

Klikkaa sitten nähdäksesi säähavainnot ja -ennusteet.

Kartan vaihtaminen: klikkaa mustalla rastilla varustettuja vihreitä pisteitä, niin voit zoomata sisään; viivalla varustettua vihreää pistettä, niin voit zoomata ulos tai vihreitä nuolia, niin pääset viereisille kartoille.


METAR-TAF: